Platitera Tonouranon — SX7180 — position and weather

sailwx.info

Track history (hours):
 
Tides and Currents Weather Stations Pressure Air Temp Water Temp Dewpoint Dewpoint Depression Visibility Wind Speed Wind Dir Waves Ship Positions

Platitera Tonouranon

Last reported at 2016-Dec-06 07:33 UTC. Time now 2016-Dec-06 12:10 UTC.
Position N 37°39' E 023°37'.

Length 55 m; draft 3.8 m.

Type: Ship (hazmat cat A). MMSI: 237038200.

Date/timePositionNaut miles runAvg speedWind from/ knotsBaromVisibWave heightAir tempDewpointWater temp
2016-Dec-06 07:33N 37°39' E 023°37'1211.8
2016-Dec-06 06:34N 37°51' E 023°39'5 5.2
2016-Dec-06 05:33N 37°56' E 023°41'0 0.0
2016-Dec-06 04:33N 37°56' E 023°41'0 0.0
2016-Dec-06 03:33N 37°56' E 023°41'0 0.0
2016-Dec-06 02:33N 37°56' E 023°41'0 0.0
2016-Dec-06 01:33N 37°56' E 023°41'0 0.0
2016-Dec-06 00:33N 37°56' E 023°41'0 0.0
2016-Dec-05 23:33N 37°56' E 023°41'0 0.0
2016-Dec-05 22:33N 37°56' E 023°41'0 0.0
2016-Dec-05 21:34N 37°56' E 023°41'0 0.0
2016-Dec-05 20:33N 37°56' E 023°41'0 0.0
2016-Dec-05 19:33N 37°56' E 023°41'0 0.0
2016-Dec-05 18:29N 37°56' E 023°41'0 0.0
2016-Dec-05 17:33N 37°56' E 023°41'0 0.0
2016-Dec-05 16:33N 37°56' E 023°41'0 0.0
2016-Dec-05 15:33N 37°56' E 023°41'0 0.0
2016-Dec-05 14:33N 37°56' E 023°41'0 0.0
2016-Dec-05 13:33N 37°56' E 023°41'0 0.0
2016-Dec-05 12:33N 37°56' E 023°41'0 0.0
2016-Dec-05 11:33N 37°56' E 023°41'0 0.0
2016-Dec-05 10:33N 37°56' E 023°41'0 0.0
2016-Dec-05 09:33N 37°56' E 023°41'0 0.0
2016-Dec-05 08:33N 37°56' E 023°41'0 0.0
2016-Dec-05 07:34N 37°56' E 023°41'0 0.0
2016-Dec-05 06:33N 37°56' E 023°41'0 0.0
2016-Dec-05 05:33N 37°56' E 023°41'0 0.0
2016-Dec-05 04:33N 37°56' E 023°41'0 0.0
2016-Dec-05 03:33N 37°56' E 023°41'0 0.0
2016-Dec-05 02:33N 37°56' E 023°41'0 0.0
2016-Dec-05 01:30N 37°56' E 023°41'0 0.0
2016-Dec-05 00:33N 37°56' E 023°41'0 0.0
2016-Dec-04 23:34N 37°56' E 023°41'0 0.0
2016-Dec-04 22:33N 37°56' E 023°41'0 0.0
2016-Dec-04 21:34N 37°56' E 023°41'0 0.0
2016-Dec-04 20:33N 37°56' E 023°41'0 0.0
2016-Dec-04 19:33N 37°56' E 023°41'0 0.0
2016-Dec-04 18:33N 37°56' E 023°41'0 0.0
2016-Dec-04 17:33N 37°56' E 023°41'1110.8
2016-Dec-04 16:33N 37°49' E 023°31'6 5.6
2016-Dec-04 15:28N 37°45' E 023°26'0 0.0
2016-Dec-04 14:14N 37°45' E 023°26'710.4
2016-Dec-04 13:33N 37°38' E 023°26'8 6.3
2016-Dec-04 12:19N 37°30' E 023°27'6 5.5
2016-Dec-04 11:11N 37°24' E 023°29'19 5.4
2016-Dec-04 07:33N 37°42' E 023°40'1212.1
2016-Dec-04 06:33N 37°54' E 023°40'3 2.6
2016-Dec-04 05:33N 37°56' E 023°41'0 0.0
2016-Dec-04 04:33N 37°56' E 023°41'0 0.0
2016-Dec-04 03:33N 37°56' E 023°41'0 0.0
2016-Dec-04 02:33N 37°56' E 023°41'0 0.0
2016-Dec-04 01:33N 37°56' E 023°41'0 0.0
2016-Dec-04 00:33N 37°56' E 023°41'0 0.0
2016-Dec-03 23:33N 37°56' E 023°41'0 0.0
2016-Dec-03 22:33N 37°56' E 023°41'0 0.0
2016-Dec-03 21:33N 37°56' E 023°41'0 0.0
2016-Dec-03 20:33N 37°56' E 023°41'0 0.0
2016-Dec-03 19:33N 37°56' E 023°41'0 0.0
2016-Dec-03 18:33N 37°56' E 023°41'0 0.0
2016-Dec-03 17:33N 37°56' E 023°41'0 0.0
2016-Dec-03 16:34N 37°56' E 023°41'0 0.0
2016-Dec-03 15:33N 37°56' E 023°41'0 0.0
2016-Dec-03 14:33N 37°56' E 023°41'0 0.0
2016-Dec-03 13:33N 37°56' E 023°41'0 0.0
2016-Dec-03 12:33N 37°56' E 023°41'0 0.0
2016-Dec-03 11:33N 37°56' E 023°41'0 0.0
2016-Dec-03 05:03N 37°56' E 023°41'0 0.0
2016-Dec-03 04:32N 37°56' E 023°41'0 0.0
2016-Dec-03 03:32N 37°56' E 023°41'0 0.0
2016-Dec-03 02:29N 37°56' E 023°41'0 0.0
2016-Dec-03 01:32N 37°56' E 023°41'0 0.0
2016-Dec-03 00:31N 37°56' E 023°41'0 0.0
2016-Dec-02 23:25N 37°56' E 023°41'0 0.0
2016-Dec-02 17:11N 37°56' E 023°41'0 0.0
2016-Dec-02 15:29N 37°56' E 023°41'0 0.0
2016-Dec-02 05:24N 37°56' E 023°41'0 0.0
2016-Dec-02 04:33N 37°56' E 023°41'0 0.0
2016-Dec-02 03:33N 37°56' E 023°41'0 0.0
2016-Dec-02 02:33N 37°56' E 023°41'0 0.0
2016-Dec-02 01:32N 37°56' E 023°41'0 0.0
2016-Dec-02 00:33N 37°56' E 023°41'0 0.0
2016-Dec-01 23:33N 37°56' E 023°41'0 0.0
2016-Dec-01 22:32N 37°56' E 023°41'0 0.0
2016-Dec-01 21:31N 37°56' E 023°41'0 0.0
2016-Dec-01 20:33N 37°56' E 023°41'0 0.0
2016-Dec-01 19:33N 37°56' E 023°41'0 0.0
2016-Dec-01 18:27N 37°56' E 023°41'0 0.0
2016-Dec-01 17:32N 37°56' E 023°41'9 9.3
2016-Dec-01 16:32N 37°51' E 023°32'8 7.6
2016-Dec-01 15:32N 37°45' E 023°26'0 0.0
2016-Dec-01 14:18N 37°45' E 023°26'8 1.2
2016-Dec-01 07:32N 37°41' E 023°35'1212.4
2016-Dec-01 06:33N 37°53' E 023°38'4 4.2
2016-Dec-01 05:33N 37°56' E 023°41'0 0.0
2016-Dec-01 04:33N 37°56' E 023°41'0 0.0
2016-Dec-01 03:33N 37°56' E 023°41'0 0.0
2016-Dec-01 02:33N 37°56' E 023°41'0 0.0
2016-Dec-01 01:33N 37°56' E 023°41'0 0.0
2016-Dec-01 00:33N 37°56' E 023°41'0 0.0
2016-Nov-30 23:33N 37°56' E 023°41'0 0.0
2016-Nov-30 22:33N 37°56' E 023°41'0 0.0
2016-Nov-30 21:33N 37°56' E 023°41'0 0.0
2016-Nov-30 20:33N 37°56' E 023°41'0 0.0
2016-Nov-30 19:33N 37°56' E 023°41'0 0.0
2016-Nov-30 18:33N 37°56' E 023°41'0 0.0
2016-Nov-30 17:33N 37°56' E 023°41'0 0.0
2016-Nov-30 16:33N 37°56' E 023°41'0 0.0
2016-Nov-30 15:33N 37°56' E 023°41'0 0.0
2016-Nov-30 14:33N 37°56' E 023°41'0 0.0
2016-Nov-30 13:33N 37°56' E 023°41'0 0.0
2016-Nov-30 12:33N 37°56' E 023°41'0 0.0
2016-Nov-30 11:33N 37°56' E 023°41'0 0.0
2016-Nov-30 10:33N 37°56' E 023°41'0 0.0
2016-Nov-30 09:33N 37°56' E 023°41'0 0.0
2016-Nov-30 08:33N 37°56' E 023°41'0 0.0
2016-Nov-30 07:33N 37°56' E 023°41'0 0.0
2016-Nov-30 06:33N 37°56' E 023°41'0 0.0
2016-Nov-30 05:33N 37°56' E 023°41'0 0.0
2016-Nov-30 04:33N 37°56' E 023°41'0 0.0
2016-Nov-30 03:33N 37°56' E 023°41'0 0.0
2016-Nov-30 02:33N 37°56' E 023°41'0 0.0
2016-Nov-30 01:33N 37°56' E 023°41'0 0.0
2016-Nov-30 00:33N 37°56' E 023°41'0 0.0
2016-Nov-29 23:33N 37°56' E 023°41'0 0.0
2016-Nov-29 22:33N 37°56' E 023°41'0 0.0
2016-Nov-29 21:33N 37°56' E 023°41'0 0.0
2016-Nov-29 20:33N 37°56' E 023°41'0 0.0
2016-Nov-29 19:33N 37°56' E 023°41'0 0.0
2016-Nov-29 18:33N 37°56' E 023°41'0 0.0
2016-Nov-29 17:33N 37°56' E 023°41'0 0.0
2016-Nov-29 16:33N 37°56' E 023°41'0 0.0
2016-Nov-29 15:33N 37°56' E 023°41'0 0.0
2016-Nov-29 14:33N 37°56' E 023°41'0 0.0
2016-Nov-29 13:33N 37°56' E 023°41'0 0.0
2016-Nov-29 12:33N 37°56' E 023°41'0 0.0
2016-Nov-29 11:33N 37°56' E 023°41'0 0.0
2016-Nov-29 10:33N 37°56' E 023°41'0 0.0
2016-Nov-29 09:33N 37°56' E 023°41'0 0.0
2016-Nov-29 08:33N 37°56' E 023°41'0 0.0
2016-Nov-29 07:33N 37°56' E 023°41'0 0.0
2016-Nov-29 06:33N 37°56' E 023°41'0 0.0
2016-Nov-29 05:33N 37°56' E 023°41'0 0.0
2016-Nov-29 04:33N 37°56' E 023°41'0 0.0
2016-Nov-29 03:33N 37°56' E 023°41'0 0.0
2016-Nov-29 02:33N 37°56' E 023°41'0 0.0
2016-Nov-29 01:33N 37°56' E 023°41'0 0.0
2016-Nov-29 00:33N 37°56' E 023°41'0 0.0
2016-Nov-28 23:33N 37°56' E 023°41'0 0.0
2016-Nov-28 22:33N 37°56' E 023°41'0 0.0
2016-Nov-28 21:33N 37°56' E 023°41'0 0.0
2016-Nov-28 20:33N 37°56' E 023°41'0 0.0
2016-Nov-28 19:33N 37°56' E 023°41'0 0.0
2016-Nov-28 18:33N 37°56' E 023°41'0 0.0
2016-Nov-28 17:33N 37°56' E 023°41'0 0.0
2016-Nov-28 16:33N 37°56' E 023°41'0 0.0
2016-Nov-28 15:33N 37°56' E 023°41'0 0.0
2016-Nov-28 14:33N 37°56' E 023°41'0 0.0
2016-Nov-28 13:33N 37°56' E 023°41'0 0.0
2016-Nov-28 12:33N 37°56' E 023°41'0 0.0
2016-Nov-28 11:33N 37°56' E 023°41'0 0.0
2016-Nov-28 10:33N 37°56' E 023°41'0 0.0
2016-Nov-28 09:33N 37°56' E 023°41'0 0.0
2016-Nov-28 08:33N 37°56' E 023°41'0 0.0
2016-Nov-28 07:33N 37°56' E 023°41'0 0.0
2016-Nov-28 06:33N 37°56' E 023°41'0 0.0
2016-Nov-28 05:33N 37°56' E 023°41'0 0.0
2016-Nov-28 04:33N 37°56' E 023°41'0 0.0
2016-Nov-28 03:33N 37°56' E 023°41'0 0.0
2016-Nov-28 02:33N 37°56' E 023°41'0 0.0
2016-Nov-28 01:33N 37°56' E 023°41'0 0.0
2016-Nov-28 00:33N 37°56' E 023°41'0 0.0
2016-Nov-27 23:33N 37°56' E 023°41'0 0.0
2016-Nov-27 22:33N 37°56' E 023°41'0 0.0
2016-Nov-27 21:33N 37°56' E 023°41'0 0.0
2016-Nov-27 20:33N 37°56' E 023°41'0 0.0
2016-Nov-27 19:33N 37°56' E 023°41'0 0.0
2016-Nov-27 18:33N 37°56' E 023°41'0 0.0
2016-Nov-27 17:31N 37°56' E 023°41'1010.0
2016-Nov-27 16:33N 37°49' E 023°33'7 7.2
2016-Nov-27 15:32N 37°45' E 023°26'0 0.0
2016-Nov-27 14:11N 37°45' E 023°26'6 8.4
2016-Nov-27 13:31N 37°39' E 023°25'9 8.8
2016-Nov-27 12:27N 37°30' E 023°27'3 3.7
2016-Nov-27 11:33N 37°28' E 023°30'7 7.2
2016-Nov-27 10:33N 37°21' E 023°28'10 4.4
2016-Nov-27 08:20N 37°30' E 023°31'1211.9
2016-Nov-27 07:22N 37°42' E 023°33'1012.0
2016-Nov-27 06:33N 37°51' E 023°37'6 5.5
2016-Nov-27 05:29N 37°56' E 023°41'0 0.0
2016-Nov-27 04:33N 37°56' E 023°41'0 0.0
2016-Nov-27 03:33N 37°56' E 023°41'0 0.0
2016-Nov-27 02:33N 37°56' E 023°41'0 0.0
2016-Nov-27 01:33N 37°56' E 023°41'0 0.0
2016-Nov-27 00:33N 37°56' E 023°41'0 0.0
2016-Nov-26 23:33N 37°56' E 023°41'0 0.0
2016-Nov-26 22:33N 37°56' E 023°41'0 0.0
2016-Nov-26 21:33N 37°56' E 023°41'0 0.0
2016-Nov-26 20:33N 37°56' E 023°41'0 0.0
2016-Nov-26 19:33N 37°56' E 023°41'0 0.0
2016-Nov-26 18:33N 37°56' E 023°41'0 0.0
2016-Nov-26 17:33N 37°56' E 023°41'9 8.7
2016-Nov-26 16:33N 37°51' E 023°33'8 7.3
2016-Nov-26 15:25N 37°45' E 023°26'0 0.0
2016-Nov-26 14:32N 37°45' E 023°26'5 4.9
2016-Nov-26 13:33N 37°40' E 023°25'12 6.1
2016-Nov-26 11:32N 37°28' E 023°30'  
Track history (hours):
 
Tides and Currents Weather Stations Pressure Air Temp Water Temp Dewpoint Dewpoint Depression Visibility Wind Speed Wind Dir Waves Ship Positions

Platitera Tonouranon

Last reported at 2016-Dec-06 07:33 UTC. Time now 2016-Dec-06 12:10 UTC.
Position N 37°39' E 023°37'.

Length 55 m; draft 3.8 m.

Type: Ship (hazmat cat A). MMSI: 237038200.

Date/timePositionNaut miles runAvg speedWind from/ knotsBaromVisibWave heightAir tempDewpointWater temp
2016-Dec-06 07:33N 37°39' E 023°37'1211.8
2016-Dec-06 06:34N 37°51' E 023°39'5 5.2
2016-Dec-06 05:33N 37°56' E 023°41'0 0.0
2016-Dec-06 04:33N 37°56' E 023°41'0 0.0
2016-Dec-06 03:33N 37°56' E 023°41'0 0.0
2016-Dec-06 02:33N 37°56' E 023°41'0 0.0
2016-Dec-06 01:33N 37°56' E 023°41'0 0.0
2016-Dec-06 00:33N 37°56' E 023°41'0 0.0
2016-Dec-05 23:33N 37°56' E 023°41'0 0.0
2016-Dec-05 22:33N 37°56' E 023°41'0 0.0
2016-Dec-05 21:34N 37°56' E 023°41'0 0.0
2016-Dec-05 20:33N 37°56' E 023°41'0 0.0
2016-Dec-05 19:33N 37°56' E 023°41'0 0.0
2016-Dec-05 18:29N 37°56' E 023°41'0 0.0
2016-Dec-05 17:33N 37°56' E 023°41'0 0.0
2016-Dec-05 16:33N 37°56' E 023°41'0 0.0
2016-Dec-05 15:33N 37°56' E 023°41'0 0.0
2016-Dec-05 14:33N 37°56' E 023°41'0 0.0
2016-Dec-05 13:33N 37°56' E 023°41'0 0.0
2016-Dec-05 12:33N 37°56' E 023°41'0 0.0
2016-Dec-05 11:33N 37°56' E 023°41'0 0.0
2016-Dec-05 10:33N 37°56' E 023°41'0 0.0
2016-Dec-05 09:33N 37°56' E 023°41'0 0.0
2016-Dec-05 08:33N 37°56' E 023°41'0 0.0
2016-Dec-05 07:34N 37°56' E 023°41'0 0.0
2016-Dec-05 06:33N 37°56' E 023°41'0 0.0
2016-Dec-05 05:33N 37°56' E 023°41'0 0.0
2016-Dec-05 04:33N 37°56' E 023°41'0 0.0
2016-Dec-05 03:33N 37°56' E 023°41'0 0.0
2016-Dec-05 02:33N 37°56' E 023°41'0 0.0
2016-Dec-05 01:30N 37°56' E 023°41'0 0.0
2016-Dec-05 00:33N 37°56' E 023°41'0 0.0
2016-Dec-04 23:34N 37°56' E 023°41'0 0.0
2016-Dec-04 22:33N 37°56' E 023°41'0 0.0
2016-Dec-04 21:34N 37°56' E 023°41'0 0.0
2016-Dec-04 20:33N 37°56' E 023°41'0 0.0
2016-Dec-04 19:33N 37°56' E 023°41'0 0.0
2016-Dec-04 18:33N 37°56' E 023°41'0 0.0
2016-Dec-04 17:33N 37°56' E 023°41'1110.8
2016-Dec-04 16:33N 37°49' E 023°31'6 5.6
2016-Dec-04 15:28N 37°45' E 023°26'0 0.0
2016-Dec-04 14:14N 37°45' E 023°26'710.4
2016-Dec-04 13:33N 37°38' E 023°26'8 6.3
2016-Dec-04 12:19N 37°30' E 023°27'6 5.5
2016-Dec-04 11:11N 37°24' E 023°29'19 5.4
2016-Dec-04 07:33N 37°42' E 023°40'1212.1
2016-Dec-04 06:33N 37°54' E 023°40'3 2.6
2016-Dec-04 05:33N 37°56' E 023°41'0 0.0
2016-Dec-04 04:33N 37°56' E 023°41'0 0.0
2016-Dec-04 03:33N 37°56' E 023°41'0 0.0
2016-Dec-04 02:33N 37°56' E 023°41'0 0.0
2016-Dec-04 01:33N 37°56' E 023°41'0 0.0
2016-Dec-04 00:33N 37°56' E 023°41'0 0.0
2016-Dec-03 23:33N 37°56' E 023°41'0 0.0
2016-Dec-03 22:33N 37°56' E 023°41'0 0.0
2016-Dec-03 21:33N 37°56' E 023°41'0 0.0
2016-Dec-03 20:33N 37°56' E 023°41'0 0.0
2016-Dec-03 19:33N 37°56' E 023°41'0 0.0
2016-Dec-03 18:33N 37°56' E 023°41'0 0.0
2016-Dec-03 17:33N 37°56' E 023°41'0 0.0
2016-Dec-03 16:34N 37°56' E 023°41'0 0.0
2016-Dec-03 15:33N 37°56' E 023°41'0 0.0
2016-Dec-03 14:33N 37°56' E 023°41'0 0.0
2016-Dec-03 13:33N 37°56' E 023°41'0 0.0
2016-Dec-03 12:33N 37°56' E 023°41'0 0.0
2016-Dec-03 11:33N 37°56' E 023°41'0 0.0
2016-Dec-03 05:03N 37°56' E 023°41'0 0.0
2016-Dec-03 04:32N 37°56' E 023°41'0 0.0
2016-Dec-03 03:32N 37°56' E 023°41'0 0.0
2016-Dec-03 02:29N 37°56' E 023°41'0 0.0
2016-Dec-03 01:32N 37°56' E 023°41'0 0.0
2016-Dec-03 00:31N 37°56' E 023°41'0 0.0
2016-Dec-02 23:25N 37°56' E 023°41'0 0.0
2016-Dec-02 17:11N 37°56' E 023°41'0 0.0
2016-Dec-02 15:29N 37°56' E 023°41'0 0.0
2016-Dec-02 05:24N 37°56' E 023°41'0 0.0
2016-Dec-02 04:33N 37°56' E 023°41'0 0.0
2016-Dec-02 03:33N 37°56' E 023°41'0 0.0
2016-Dec-02 02:33N 37°56' E 023°41'0 0.0
2016-Dec-02 01:32N 37°56' E 023°41'0 0.0
2016-Dec-02 00:33N 37°56' E 023°41'0 0.0
2016-Dec-01 23:33N 37°56' E 023°41'0 0.0
2016-Dec-01 22:32N 37°56' E 023°41'0 0.0
2016-Dec-01 21:31N 37°56' E 023°41'0 0.0
2016-Dec-01 20:33N 37°56' E 023°41'0 0.0
2016-Dec-01 19:33N 37°56' E 023°41'0 0.0
2016-Dec-01 18:27N 37°56' E 023°41'0 0.0
2016-Dec-01 17:32N 37°56' E 023°41'9 9.3
2016-Dec-01 16:32N 37°51' E 023°32'8 7.6
2016-Dec-01 15:32N 37°45' E 023°26'0 0.0
2016-Dec-01 14:18N 37°45' E 023°26'8 1.2
2016-Dec-01 07:32N 37°41' E 023°35'1212.4
2016-Dec-01 06:33N 37°53' E 023°38'4 4.2
2016-Dec-01 05:33N 37°56' E 023°41'0 0.0
2016-Dec-01 04:33N 37°56' E 023°41'0 0.0
2016-Dec-01 03:33N 37°56' E 023°41'0 0.0
2016-Dec-01 02:33N 37°56' E 023°41'0 0.0
2016-Dec-01 01:33N 37°56' E 023°41'0 0.0
2016-Dec-01 00:33N 37°56' E 023°41'0 0.0
2016-Nov-30 23:33N 37°56' E 023°41'0 0.0
2016-Nov-30 22:33N 37°56' E 023°41'0 0.0
2016-Nov-30 21:33N 37°56' E 023°41'0 0.0
2016-Nov-30 20:33N 37°56' E 023°41'0 0.0
2016-Nov-30 19:33N 37°56' E 023°41'0 0.0
2016-Nov-30 18:33N 37°56' E 023°41'0 0.0
2016-Nov-30 17:33N 37°56' E 023°41'0 0.0
2016-Nov-30 16:33N 37°56' E 023°41'0 0.0
2016-Nov-30 15:33N 37°56' E 023°41'0 0.0
2016-Nov-30 14:33N 37°56' E 023°41'0 0.0
2016-Nov-30 13:33N 37°56' E 023°41'0 0.0
2016-Nov-30 12:33N 37°56' E 023°41'0 0.0
2016-Nov-30 11:33N 37°56' E 023°41'0 0.0
2016-Nov-30 10:33N 37°56' E 023°41'0 0.0
2016-Nov-30 09:33N 37°56' E 023°41'0 0.0
2016-Nov-30 08:33N 37°56' E 023°41'0 0.0
2016-Nov-30 07:33N 37°56' E 023°41'0 0.0
2016-Nov-30 06:33N 37°56' E 023°41'0 0.0
2016-Nov-30 05:33N 37°56' E 023°41'0 0.0
2016-Nov-30 04:33N 37°56' E 023°41'0 0.0
2016-Nov-30 03:33N 37°56' E 023°41'0 0.0
2016-Nov-30 02:33N 37°56' E 023°41'0 0.0
2016-Nov-30 01:33N 37°56' E 023°41'0 0.0
2016-Nov-30 00:33N 37°56' E 023°41'0 0.0
2016-Nov-29 23:33N 37°56' E 023°41'0 0.0
2016-Nov-29 22:33N 37°56' E 023°41'0 0.0
2016-Nov-29 21:33N 37°56' E 023°41'0 0.0
2016-Nov-29 20:33N 37°56' E 023°41'0 0.0
2016-Nov-29 19:33N 37°56' E 023°41'0 0.0
2016-Nov-29 18:33N 37°56' E 023°41'0 0.0
2016-Nov-29 17:33N 37°56' E 023°41'0 0.0
2016-Nov-29 16:33N 37°56' E 023°41'0 0.0
2016-Nov-29 15:33N 37°56' E 023°41'0 0.0
2016-Nov-29 14:33N 37°56' E 023°41'0 0.0
2016-Nov-29 13:33N 37°56' E 023°41'0 0.0
2016-Nov-29 12:33N 37°56' E 023°41'0 0.0
2016-Nov-29 11:33N 37°56' E 023°41'0 0.0
2016-Nov-29 10:33N 37°56' E 023°41'0 0.0
2016-Nov-29 09:33N 37°56' E 023°41'0 0.0
2016-Nov-29 08:33N 37°56' E 023°41'0 0.0
2016-Nov-29 07:33N 37°56' E 023°41'0 0.0
2016-Nov-29 06:33N 37°56' E 023°41'0 0.0
2016-Nov-29 05:33N 37°56' E 023°41'0 0.0
2016-Nov-29 04:33N 37°56' E 023°41'0 0.0
2016-Nov-29 03:33N 37°56' E 023°41'0 0.0
2016-Nov-29 02:33N 37°56' E 023°41'0 0.0
2016-Nov-29 01:33N 37°56' E 023°41'0 0.0
2016-Nov-29 00:33N 37°56' E 023°41'0 0.0
2016-Nov-28 23:33N 37°56' E 023°41'0 0.0
2016-Nov-28 22:33N 37°56' E 023°41'0 0.0
2016-Nov-28 21:33N 37°56' E 023°41'0 0.0
2016-Nov-28 20:33N 37°56' E 023°41'0 0.0
2016-Nov-28 19:33N 37°56' E 023°41'0 0.0
2016-Nov-28 18:33N 37°56' E 023°41'0 0.0
2016-Nov-28 17:33N 37°56' E 023°41'0 0.0
2016-Nov-28 16:33N 37°56' E 023°41'0 0.0
2016-Nov-28 15:33N 37°56' E 023°41'0 0.0
2016-Nov-28 14:33N 37°56' E 023°41'0 0.0
2016-Nov-28 13:33N 37°56' E 023°41'0 0.0
2016-Nov-28 12:33N 37°56' E 023°41'0 0.0
2016-Nov-28 11:33N 37°56' E 023°41'0 0.0
2016-Nov-28 10:33N 37°56' E 023°41'0 0.0
2016-Nov-28 09:33N 37°56' E 023°41'0 0.0
2016-Nov-28 08:33N 37°56' E 023°41'0 0.0
2016-Nov-28 07:33N 37°56' E 023°41'0 0.0
2016-Nov-28 06:33N 37°56' E 023°41'0 0.0
2016-Nov-28 05:33N 37°56' E 023°41'0 0.0
2016-Nov-28 04:33N 37°56' E 023°41'0 0.0
2016-Nov-28 03:33N 37°56' E 023°41'0 0.0
2016-Nov-28 02:33N 37°56' E 023°41'0 0.0
2016-Nov-28 01:33N 37°56' E 023°41'0 0.0
2016-Nov-28 00:33N 37°56' E 023°41'0 0.0
2016-Nov-27 23:33N 37°56' E 023°41'0 0.0
2016-Nov-27 22:33N 37°56' E 023°41'0 0.0
2016-Nov-27 21:33N 37°56' E 023°41'0 0.0
2016-Nov-27 20:33N 37°56' E 023°41'0 0.0
2016-Nov-27 19:33N 37°56' E 023°41'0 0.0
2016-Nov-27 18:33N 37°56' E 023°41'0 0.0
2016-Nov-27 17:31N 37°56' E 023°41'1010.0
2016-Nov-27 16:33N 37°49' E 023°33'7 7.2
2016-Nov-27 15:32N 37°45' E 023°26'0 0.0
2016-Nov-27 14:11N 37°45' E 023°26'6 8.4
2016-Nov-27 13:31N 37°39' E 023°25'9 8.8
2016-Nov-27 12:27N 37°30' E 023°27'3 3.7
2016-Nov-27 11:33N 37°28' E 023°30'7 7.2
2016-Nov-27 10:33N 37°21' E 023°28'10 4.4
2016-Nov-27 08:20N 37°30' E 023°31'1211.9
2016-Nov-27 07:22N 37°42' E 023°33'1012.0
2016-Nov-27 06:33N 37°51' E 023°37'6 5.5
2016-Nov-27 05:29N 37°56' E 023°41'0 0.0
2016-Nov-27 04:33N 37°56' E 023°41'0 0.0
2016-Nov-27 03:33N 37°56' E 023°41'0 0.0
2016-Nov-27 02:33N 37°56' E 023°41'0 0.0
2016-Nov-27 01:33N 37°56' E 023°41'0 0.0
2016-Nov-27 00:33N 37°56' E 023°41'0 0.0
2016-Nov-26 23:33N 37°56' E 023°41'0 0.0
2016-Nov-26 22:33N 37°56' E 023°41'0 0.0
2016-Nov-26 21:33N 37°56' E 023°41'0 0.0
2016-Nov-26 20:33N 37°56' E 023°41'0 0.0
2016-Nov-26 19:33N 37°56' E 023°41'0 0.0
2016-Nov-26 18:33N 37°56' E 023°41'0 0.0
2016-Nov-26 17:33N 37°56' E 023°41'9 8.7
2016-Nov-26 16:33N 37°51' E 023°33'8 7.3
2016-Nov-26 15:25N 37°45' E 023°26'0 0.0
2016-Nov-26 14:32N 37°45' E 023°26'5 4.9
2016-Nov-26 13:33N 37°40' E 023°25'12 6.1
2016-Nov-26 11:32N 37°28' E 023°30'  

Dump ship's entire track history